Time;durP1;ratioP1;P1;durP2;ratioP2;P2;SDS_P1;SDS_P2;PMS_P1;PMS_P2;Temp;Humidity;BMP_temperature;BMP_pressure;BME280_temperature;BME280_humidity;BME280_pressure;Samples;Min_cycle;Max_cycle;Signal;HPM_P1;HPM_P2
2022/05/13 00:00:39;;;;;;;16.42;3.78;;;;;;;14.17;66.30;101875.13;4941938;28;20367;-58
2022/05/13 00:03:05;;;;;;;20.23;3.60;;;;;;;14.11;66.74;101880.28;4959802;28;20038;-58
2022/05/13 00:05:30;;;;;;;18.35;3.45;;;;;;;14.10;66.99;101873.28;4939919;28;20129;-56
2022/05/13 00:07:55;;;;;;;24.63;3.60;;;;;;;14.05;67.55;101870.59;4957921;28;20096;-56
2022/05/13 00:10:22;;;;;;;16.60;3.70;;;;;;;14.09;67.41;101876.75;4955342;28;20086;-57
2022/05/13 00:12:48;;;;;;;19.13;3.70;;;;;;;14.04;67.73;101879.31;4961831;28;20054;-57
2022/05/13 00:15:17;;;;;;;16.95;3.67;;;;;;;14.02;68.31;101872.31;4959548;28;20462;-58
2022/05/13 00:17:42;;;;;;;25.50;3.90;;;;;;;14.02;68.57;101867.94;4957292;28;20413;-56
2022/05/13 00:20:08;;;;;;;21.77;3.92;;;;;;;14.02;68.77;101869.69;4943817;28;20051;-56
2022/05/13 00:22:34;;;;;;;20.13;3.47;;;;;;;14.03;69.26;101872.28;4956644;28;20083;-56
2022/05/13 00:24:59;;;;;;;19.27;4.30;;;;;;;14.04;69.54;101866.19;4958235;28;20224;-57
2022/05/13 00:27:25;;;;;;;23.58;4.18;;;;;;;14.06;70.01;101867.13;4947253;28;20496;-57
2022/05/13 00:29:50;;;;;;;21.17;4.13;;;;;;;14.07;70.34;101868.00;4960081;28;20054;-56
2022/05/13 00:32:17;;;;;;;21.05;4.05;;;;;;;14.07;70.73;101861.00;4961397;28;20046;-58
2022/05/13 00:34:43;;;;;;;20.35;3.70;;;;;;;14.12;70.71;101867.19;4960914;28;20038;-56
2022/05/13 00:37:08;;;;;;;29.67;4.35;;;;;;;14.17;70.64;101869.88;4951705;28;20251;-59
2022/05/13 00:39:34;;;;;;;24.38;4.32;;;;;;;14.18;70.59;101864.66;4953230;28;20326;-57
2022/05/13 00:42:11;;;;;;;22.63;4.07;;;;;;;14.19;70.96;101855.06;4958096;28;20077;-57
2022/05/13 00:44:36;;;;;;;20.58;3.95;;;;;;;14.23;70.65;101868.22;4953527;28;20474;-55
2022/05/13 00:47:02;;;;;;;18.27;3.90;;;;;;;14.23;71.13;101859.47;4952851;28;20085;-56
2022/05/13 00:49:31;;;;;;;21.75;4.18;;;;;;;14.22;71.35;101855.09;4946932;28;20156;-59
2022/05/13 00:51:57;;;;;;;18.50;3.80;;;;;;;14.26;71.09;101858.66;4962926;28;20206;-56
2022/05/13 00:54:23;;;;;;;22.08;4.13;;;;;;;14.28;71.05;101859.53;4961554;28;20046;-58
2022/05/13 00:56:48;;;;;;;29.30;4.30;;;;;;;14.32;71.15;101856.13;4961165;28;20103;-57
2022/05/13 00:59:19;;;;;;;21.63;4.15;;;;;;;14.28;71.08;101859.53;4961636;28;20076;-56
2022/05/13 01:01:45;;;;;;;17.70;3.78;;;;;;;14.35;70.73;101853.53;4950905;28;21435;-58
2022/05/13 01:04:13;;;;;;;28.60;4.45;;;;;;;14.32;70.93;101849.13;4958769;28;20038;-59
2022/05/13 01:06:43;;;;;;;23.05;4.50;;;;;;;14.42;70.10;101855.41;4953061;28;20589;-58
2022/05/13 01:09:08;;;;;;;21.95;3.72;;;;;;;14.41;69.71;101851.00;4959873;28;20038;-57
2022/05/13 01:11:38;;;;;;;20.02;3.80;;;;;;;14.40;69.54;101838.75;4955198;28;20388;-58
2022/05/13 01:14:17;;;;;;;25.80;3.90;;;;;;;14.42;68.98;101844.91;4960227;28;20653;-58
2022/05/13 01:19:29;;;;;;;18.67;3.43;;;;;;;14.44;67.38;101849.34;4951362;28;20052;-57
2022/05/13 01:21:54;;;;;;;13.73;3.55;;;;;;;14.48;66.60;101843.25;4957026;28;20054;-58
2022/05/13 01:24:21;;;;;;;18.95;4.13;;;;;;;14.49;66.31;101841.50;4960930;28;20506;-55
2022/05/13 01:26:47;;;;;;;12.07;3.03;;;;;;;14.52;64.62;101837.16;4954598;28;20050;-58
2022/05/13 01:29:12;;;;;;;11.73;3.20;;;;;;;14.55;63.14;101837.22;4958051;28;20148;-57
2022/05/13 01:31:39;;;;;;;13.48;3.10;;;;;;;14.60;62.54;101839.91;4955595;28;21023;-57
2022/05/13 01:34:10;;;;;;;19.55;3.50;;;;;;;14.60;62.54;101842.53;4962399;28;20362;-59
2022/05/13 01:36:39;;;;;;;14.77;3.08;;;;;;;14.61;62.50;101839.03;4954924;28;20046;-58
2022/05/13 01:39:05;;;;;;;15.52;3.13;;;;;;;14.67;62.52;101838.22;4953885;28;20042;-57
2022/05/13 01:41:30;;;;;;;14.75;3.10;;;;;;;14.65;62.83;101839.94;4946519;28;20086;-57
2022/05/13 01:43:56;;;;;;;15.70;3.50;;;;;;;14.65;62.69;101838.19;4955226;28;20041;-57
2022/05/13 01:46:22;;;;;;;12.02;3.33;;;;;;;14.65;62.54;101839.94;4950617;28;20145;-57
2022/05/13 01:48:48;;;;;;;15.40;3.20;;;;;;;14.66;61.96;101844.34;4945976;28;20295;-57
2022/05/13 01:51:15;;;;;;;12.15;3.03;;;;;;;14.67;62.50;101841.75;4961590;28;20567;-57
2022/05/13 01:53:41;;;;;;;14.73;3.05;;;;;;;14.67;62.32;101844.34;4959356;28;20048;-58
2022/05/13 01:56:06;;;;;;;16.02;3.47;;;;;;;14.66;62.18;101850.47;4960226;28;20054;-58
2022/05/13 01:58:32;;;;;;;17.15;3.38;;;;;;;14.65;62.24;101850.44;4954956;28;20508;-57
2022/05/13 02:00:58;;;;;;;11.48;3.38;;;;;;;14.60;62.25;101842.53;4930807;28;20046;-57
2022/05/13 02:03:44;;;;;;;14.88;3.63;;;;;;;14.60;62.21;101840.78;4953216;28;20042;-57
2022/05/13 02:06:18;;;;;;;13.18;3.50;;;;;;;14.56;62.38;101835.47;4961718;28;20031;-57
2022/05/13 02:08:44;;;;;;;13.45;3.47;;;;;;;14.46;62.26;101833.59;4939727;28;20035;-57
2022/05/13 02:11:11;;;;;;;12.80;3.42;;;;;;;14.48;62.30;101827.50;4948213;28;20537;-59
2022/05/13 02:13:36;;;;;;;12.43;3.45;;;;;;;14.36;62.72;101823.81;4953262;28;20615;-58
2022/05/13 02:16:03;;;;;;;12.35;3.10;;;;;;;14.37;62.53;101826.50;4959866;28;20092;-57
2022/05/13 02:18:29;;;;;;;9.77;3.15;;;;;;;14.32;62.81;101832.50;4954082;28;20088;-57
2022/05/13 02:20:55;;;;;;;14.00;3.53;;;;;;;14.31;62.83;101838.63;4952934;28;20518;-58
2022/05/13 02:23:21;;;;;;;15.85;3.38;;;;;;;14.25;63.17;101835.91;4957779;28;20486;-55
2022/05/13 02:25:48;;;;;;;16.17;3.60;;;;;;;14.21;63.63;101835.84;4956243;28;20225;-55
2022/05/13 02:28:14;;;;;;;13.23;3.40;;;;;;;14.21;63.45;101835.84;4957768;28;20042;-55
2022/05/13 02:30:39;;;;;;;11.50;3.63;;;;;;;14.18;63.89;101825.34;4963733;28;20045;-56
2022/05/13 02:33:05;;;;;;;16.73;3.90;;;;;;;14.19;63.70;101820.97;4961215;28;20325;-57
2022/05/13 02:35:30;;;;;;;14.57;3.45;;;;;;;14.09;64.55;101824.31;4947524;28;20504;-57
2022/05/13 02:37:56;;;;;;;17.10;3.47;;;;;;;14.07;63.87;101813.81;4958332;28;20056;-56
2022/05/13 02:41:11;;;;;;;13.45;3.50;;;;;;;14.03;64.00;101816.34;4961643;28;20047;-56
2022/05/13 02:43:07;;;;;;;12.25;3.60;;;;;;;14.00;64.04;101806.72;4952597;28;20104;-57
2022/05/13 02:45:32;;;;;;;11.65;3.42;;;;;;;13.96;63.91;101810.16;4944258;28;20188;-57
2022/05/13 02:47:57;;;;;;;13.13;3.65;;;;;;;13.94;63.80;101817.13;4952234;28;20042;-55
2022/05/13 02:50:25;;;;;;;9.82;3.30;;;;;;;13.91;63.63;101810.94;4960744;28;20486;-57
2022/05/13 02:52:51;;;;;;;10.00;3.00;;;;;;;13.82;63.81;101812.59;4956060;28;20132;-59
2022/05/13 02:55:19;;;;;;;11.02;3.35;;;;;;;13.74;64.18;101815.94;4956523;28;20101;-57
2022/05/13 02:57:45;;;;;;;16.55;3.53;;;;;;;13.77;64.01;101814.25;4953474;28;20805;-57
2022/05/13 03:00:12;;;;;;;11.93;3.45;;;;;;;13.77;63.93;101808.13;4958659;28;20520;-59
2022/05/13 03:02:37;;;;;;;13.27;3.10;;;;;;;13.72;63.93;101813.28;4959731;28;20053;-58
2022/05/13 03:05:04;;;;;;;10.70;3.03;;;;;;;13.71;63.96;101818.53;4959611;28;20042;-58
2022/05/13 03:07:29;;;;;;;10.73;3.17;;;;;;;13.73;63.88;101819.41;4949246;28;20386;-58
2022/05/13 03:09:54;;;;;;;14.10;3.10;;;;;;;13.67;64.37;101808.81;4961198;28;20402;-58
2022/05/13 03:12:20;;;;;;;11.27;3.08;;;;;;;13.66;64.42;101814.94;4940990;28;20144;-57
2022/05/13 03:14:45;;;;;;;12.88;3.35;;;;;;;13.63;64.71;101812.25;4952954;28;20348;-58
2022/05/13 03:17:18;;;;;;;16.70;3.45;;;;;;;13.60;64.49;101817.47;4951196;28;20245;-57
2022/05/13 03:19:44;;;;;;;13.10;3.08;;;;;;;13.63;64.77;101812.25;4954121;28;20120;-58
2022/05/13 03:22:09;;;;;;;12.85;3.20;;;;;;;13.61;64.60;101817.47;4959817;28;20363;-58
2022/05/13 03:24:35;;;;;;;8.35;2.80;;;;;;;13.56;65.04;101815.63;4948543;28;20049;-59
2022/05/13 03:27:00;;;;;;;10.13;2.95;;;;;;;13.59;64.70;101821.81;4955968;28;20045;-58
2022/05/13 03:29:27;;;;;;;9.85;3.10;;;;;;;13.57;65.26;101820.03;4949959;28;20046;-57
2022/05/13 03:31:53;;;;;;;13.85;3.47;;;;;;;13.54;65.96;101831.31;4957752;28;20065;-58
2022/05/13 03:34:20;;;;;;;12.43;3.10;;;;;;;13.60;65.72;101823.56;4958770;28;20092;-58
2022/05/13 03:36:46;;;;;;;10.75;3.15;;;;;;;13.70;65.46;101822.88;4959263;28;20088;-57
2022/05/13 03:39:12;;;;;;;17.35;3.50;;;;;;;13.68;66.01;101827.19;4960272;28;20038;-58
2022/05/13 03:41:37;;;;;;;15.80;3.08;;;;;;;13.74;65.84;101837.78;4942138;28;20344;-59
2022/05/13 03:44:03;;;;;;;16.05;3.38;;;;;;;13.77;66.19;101829.09;4950280;28;20052;-57
2022/05/13 03:46:29;;;;;;;10.45;3.13;;;;;;;13.76;66.41;101822.09;4954594;28;20046;-58
2022/05/13 03:48:55;;;;;;;12.73;3.45;;;;;;;13.79;66.30;101833.47;4936802;28;20069;-58
2022/05/13 03:51:22;;;;;;;11.00;3.10;;;;;;;13.82;66.49;101844.03;4948249;28;20054;-60
2022/05/13 03:53:50;;;;;;;14.05;3.00;;;;;;;13.84;66.75;101843.19;4953769;28;20509;-57
2022/05/13 03:56:16;;;;;;;11.88;3.13;;;;;;;13.83;66.60;101837.06;4958790;28;20163;-58
2022/05/13 03:58:42;;;;;;;18.77;3.55;;;;;;;13.85;66.73;101827.44;4956729;28;20107;-58
2022/05/13 04:01:07;;;;;;;11.82;3.53;;;;;;;13.82;66.97;101828.31;4956955;28;20042;-59
2022/05/13 04:03:33;;;;;;;13.57;3.20;;;;;;;13.84;66.73;101838.81;4951072;28;20046;-58
2022/05/13 04:08:57;;;;;;;9.57;2.80;;;;;;;13.90;65.45;101833.66;4953924;28;20642;-57
2022/05/13 04:11:29;;;;;;;9.68;2.85;;;;;;;13.91;65.36;101831.91;4950872;28;20039;-59
2022/05/13 04:16:38;;;;;;;9.88;2.72;;;;;;;13.86;65.10;101844.06;4958496;28;20057;-58
2022/05/13 04:19:06;;;;;;;7.32;2.63;;;;;;;13.80;64.83;101839.63;4956474;28;20035;-59
2022/05/13 04:21:35;;;;;;;8.52;3.00;;;;;;;13.80;65.31;101843.13;4949719;28;20501;-57
2022/05/13 04:24:04;;;;;;;10.27;2.70;;;;;;;13.83;65.25;101839.69;4964732;28;20178;-58
2022/05/13 04:26:30;;;;;;;12.07;2.75;;;;;;;13.87;65.29;101830.09;4957210;28;20424;-59
2022/05/13 04:28:57;;;;;;;9.23;2.78;;;;;;;13.91;65.05;101826.66;4951712;28;20294;-57
2022/05/13 04:31:24;;;;;;;11.65;2.58;;;;;;;13.97;64.48;101829.38;4958244;28;20039;-58
2022/05/13 04:33:51;;;;;;;7.95;2.55;;;;;;;14.01;64.24;101841.69;4961467;28;20154;-56
2022/05/13 04:36:17;;;;;;;9.35;2.58;;;;;;;14.08;63.92;101846.16;4951799;28;20078;-57
2022/05/13 04:38:44;;;;;;;7.97;2.65;;;;;;;14.17;63.65;101844.53;4956421;28;20050;-58
2022/05/13 04:43:55;;;;;;;9.15;2.40;;;;;;;14.42;62.63;101856.28;4954744;28;20516;-57
2022/05/13 04:46:21;;;;;;;11.43;2.35;;;;;;;14.46;62.98;101859.81;4959507;28;20076;-56
2022/05/13 04:48:47;;;;;;;13.23;2.78;;;;;;;14.50;62.98;101866.91;4950178;28;20595;-57
2022/05/13 04:51:13;;;;;;;9.70;2.70;;;;;;;14.57;62.36;101869.63;4961016;28;20425;-57
2022/05/13 04:53:39;;;;;;;14.80;2.20;;;;;;;14.59;62.41;101872.25;4945450;28;20052;-57
2022/05/13 04:56:07;;;;;;;8.88;2.30;;;;;;;14.66;61.82;101871.47;4955924;28;20065;-58
2022/05/13 04:58:33;;;;;;;8.38;2.50;;;;;;;14.70;62.22;101881.13;4957042;28;20427;-60
2022/05/13 05:01:00;;;;;;;11.93;2.50;;;;;;;14.76;61.81;101891.69;4953556;28;20058;-58
2022/05/13 05:03:28;;;;;;;10.57;2.40;;;;;;;14.65;62.22;101879.31;4952498;28;20828;-59
2022/05/13 05:05:54;;;;;;;8.05;2.25;;;;;;;14.74;61.43;101888.19;4961274;28;20062;-58
2022/05/13 05:08:20;;;;;;;9.43;2.30;;;;;;;14.76;60.94;101885.59;4955699;28;20047;-59
2022/05/13 05:10:50;;;;;;;11.07;2.40;;;;;;;14.85;61.21;101894.47;4961245;28;20320;-58
2022/05/13 05:13:26;;;;;;;10.75;2.30;;;;;;;14.82;60.90;101890.94;4959135;28;20506;-58
2022/05/13 05:15:53;;;;;;;10.50;2.10;;;;;;;14.84;60.95;101895.31;4958145;28;20051;-59
2022/05/13 05:18:18;;;;;;;6.75;2.20;;;;;;;14.86;61.23;101890.09;4959020;28;20043;-58
2022/05/13 05:20:44;;;;;;;8.90;2.13;;;;;;;15.11;60.72;101900.03;4962458;28;20034;-58
2022/05/13 05:23:19;;;;;;;10.52;2.70;;;;;;;15.35;60.14;101904.66;4958302;28;20056;-56
2022/05/13 05:25:45;;;;;;;9.43;2.38;;;;;;;15.48;59.32;101913.53;4953992;28;20042;-58
2022/05/13 05:28:11;;;;;;;10.27;2.50;;;;;;;15.15;61.01;101900.91;4957271;28;20053;-59
2022/05/13 05:30:37;;;;;;;11.23;2.42;;;;;;;15.16;60.62;101910.56;4942304;28;20042;-58
2022/05/13 05:33:02;;;;;;;7.20;2.15;;;;;;;15.16;61.04;101910.56;4945215;28;20096;-59
2022/05/13 05:35:29;;;;;;;14.65;2.40;;;;;;;15.19;61.49;101915.84;4953015;28;20085;-60
2022/05/13 05:37:54;;;;;;;9.98;2.33;;;;;;;15.22;61.28;101921.13;4961026;28;20048;-58
2022/05/13 05:40:20;;;;;;;9.63;2.60;;;;;;;15.34;61.16;101927.41;4960791;28;20050;-58
2022/05/13 05:42:45;;;;;;;11.00;2.42;;;;;;;15.48;60.76;101921.41;4957138;28;20599;-58
2022/05/13 05:45:13;;;;;;;11.68;2.38;;;;;;;15.51;61.21;101927.56;4953125;28;20066;-60
2022/05/13 05:47:39;;;;;;;11.00;2.50;;;;;;;16.00;59.90;101923.66;4956024;28;20053;-57
2022/05/13 05:50:08;;;;;;;9.82;2.42;;;;;;;16.26;58.59;101929.13;4959837;28;20046;-58
2022/05/13 05:52:34;;;;;;;11.18;2.60;;;;;;;16.39;58.64;101928.34;4960518;28;20129;-59
2022/05/13 05:57:58;;;;;;;13.85;2.50;;;;;;;16.44;57.91;101931.00;4955182;28;20210;-58
2022/05/13 06:00:25;;;;;;;8.48;2.30;;;;;;;16.49;57.44;101935.41;4949937;28;20562;-60
2022/05/13 06:02:50;;;;;;;9.23;2.22;;;;;;;16.52;57.49;101938.06;4956671;28;20493;-58
2022/05/13 06:05:16;;;;;;;12.73;2.63;;;;;;;16.53;57.46;101941.56;4953302;28;20050;-58
2022/05/13 06:07:42;;;;;;;13.82;2.72;;;;;;;16.61;56.81;101946.03;4951935;28;20058;-58
2022/05/13 06:10:08;;;;;;;8.30;1.95;;;;;;;16.73;56.66;101955.75;4956815;28;20165;-59
2022/05/13 06:12:33;;;;;;;11.55;2.17;;;;;;;16.66;56.15;101942.53;4959115;28;20123;-59
2022/05/13 06:14:58;;;;;;;10.57;2.30;;;;;;;16.86;55.34;101952.31;4956029;28;20042;-58
2022/05/13 06:17:24;;;;;;;15.23;2.15;;;;;;;16.93;55.74;101955.88;4954519;28;20053;-58
2022/05/13 06:19:49;;;;;;;12.40;2.38;;;;;;;17.12;54.91;101954.19;4952819;28;20050;-57
2022/05/13 06:22:15;;;;;;;9.88;2.38;;;;;;;17.18;54.83;101952.47;4957206;28;20517;-58
2022/05/13 06:24:40;;;;;;;12.23;2.30;;;;;;;17.42;54.85;101944.63;4959050;28;20046;-57
2022/05/13 06:27:06;;;;;;;12.02;2.25;;;;;;;17.75;53.39;101945.56;4959349;28;20573;-58
2022/05/13 06:29:31;;;;;;;11.48;2.08;;;;;;;18.89;50.45;101948.09;4938983;28;20207;-57
2022/05/13 06:31:59;;;;;;;8.07;2.25;;;;;;;20.56;47.41;101955.75;4960100;28;20073;-57
2022/05/13 06:34:24;;;;;;;7.88;2.00;;;;;;;21.96;43.56;101945.94;4950624;28;20509;-57
2022/05/13 06:36:50;;;;;;;9.35;2.15;;;;;;;22.63;41.53;101940.28;4955011;28;20157;-58
2022/05/13 06:39:16;;;;;;;7.03;1.80;;;;;;;23.64;39.35;101943.50;4960124;28;20050;-58
2022/05/13 06:41:42;;;;;;;8.60;1.73;;;;;;;24.34;37.74;101949.72;4939575;28;20743;-58
2022/05/13 06:44:08;;;;;;;6.38;1.65;;;;;;;24.90;35.08;101945.53;4956498;28;20050;-57
2022/05/13 06:46:35;;;;;;;4.80;1.60;;;;;;;25.93;33.04;101944.09;4947987;28;20042;-58
2022/05/13 06:49:04;;;;;;;9.15;1.58;;;;;;;25.34;33.93;101941.53;4956237;28;21469;-59
2022/05/13 06:51:30;;;;;;;4.63;1.27;;;;;;;25.33;32.95;101953.13;4949203;28;20089;-60
2022/05/13 06:53:56;;;;;;;5.05;1.33;;;;;;;25.61;32.80;101961.19;4955646;28;20292;-58
2022/05/13 06:56:21;;;;;;;7.72;1.50;;;;;;;25.67;33.90;101961.00;4957221;28;20474;-56
2022/05/13 06:58:47;;;;;;;5.60;1.30;;;;;;;25.97;33.44;101956.44;4952390;28;20426;-58
2022/05/13 07:01:13;;;;;;;9.20;1.85;;;;;;;24.78;34.48;101962.72;4959387;28;20568;-59
2022/05/13 07:03:38;;;;;;;6.70;1.67;;;;;;;25.32;34.04;101964.72;4949956;28;20495;-59
2022/05/13 07:06:04;;;;;;;5.75;1.50;;;;;;;25.57;32.91;101967.53;4949595;28;20116;-60
2022/05/13 07:08:30;;;;;;;5.47;1.50;;;;;;;25.31;33.82;101963.84;4923171;28;20919;-59
2022/05/13 07:10:56;;;;;;;4.95;1.17;;;;;;;24.55;34.95;101974.03;4960147;28;20277;-59
2022/05/13 07:13:24;;;;;;;6.88;1.40;;;;;;;24.30;35.47;101977.38;4947169;28;20167;-57
2022/05/13 07:15:50;;;;;;;5.78;1.50;;;;;;;23.97;34.81;101977.28;4948951;28;20058;-58
2022/05/13 07:18:15;;;;;;;4.60;1.30;;;;;;;24.49;34.24;101984.88;4955715;28;20477;-59
2022/05/13 07:20:41;;;;;;;5.82;1.40;;;;;;;23.89;35.56;101984.59;4961697;28;20046;-58
2022/05/13 07:23:07;;;;;;;5.60;1.40;;;;;;;24.06;35.69;101976.19;4957403;28;20047;-59
2022/05/13 07:25:32;;;;;;;7.05;1.70;;;;;;;23.67;37.35;101989.53;4950272;28;20557;-58
2022/05/13 07:27:58;;;;;;;5.55;1.42;;;;;;;23.71;36.94;101993.91;4946417;28;20097;-59
2022/05/13 07:30:24;;;;;;;6.78;1.60;;;;;;;23.28;37.64;101999.28;4952382;28;20635;-58
2022/05/13 07:32:49;;;;;;;7.55;1.52;;;;;;;23.69;37.53;101995.72;4951770;28;20113;-58
2022/05/13 07:35:14;;;;;;;6.03;1.70;;;;;;;23.22;38.27;101996.75;4942434;28;20049;-59
2022/05/13 07:37:40;;;;;;;7.10;1.52;;;;;;;22.99;38.25;102005.19;4955860;28;20281;-58
2022/05/13 07:42:50;;;;;;;8.75;1.65;;;;;;;22.75;38.49;101996.84;4947415;28;20069;-59
2022/05/13 07:45:15;;;;;;;8.60;1.80;;;;;;;23.29;38.23;102003.69;4959596;28;20054;-59
2022/05/13 07:47:42;;;;;;;7.95;2.00;;;;;;;24.08;36.16;101999.22;4954312;28;20030;-58
2022/05/13 07:50:10;;;;;;;5.65;1.67;;;;;;;24.17;37.54;102009.63;4949087;28;20042;-59
2022/05/13 07:52:40;;;;;;;7.05;1.73;;;;;;;25.30;33.59;102003.94;4947553;28;20053;-58
2022/05/13 07:55:07;;;;;;;7.65;1.83;;;;;;;24.91;35.26;102006.84;4955571;28;20548;-59
2022/05/13 07:57:33;;;;;;;5.07;1.50;;;;;;;25.28;33.92;102017.34;4954995;28;20318;-57
2022/05/13 08:02:43;;;;;;;5.88;1.45;;;;;;;24.41;35.53;102020.63;4947508;28;20033;-61
2022/05/13 08:05:09;;;;;;;4.68;1.40;;;;;;;24.74;34.33;102014.41;4927644;28;20054;-58
2022/05/13 08:07:34;;;;;;;7.47;1.70;;;;;;;24.66;33.22;102019.94;4953868;28;20041;-59
2022/05/13 08:09:59;;;;;;;6.45;1.40;;;;;;;24.45;34.99;102016.97;4948189;28;20121;-59
2022/05/13 08:12:25;;;;;;;6.63;1.40;;;;;;;24.42;35.63;102014.38;4947110;28;20104;-59
2022/05/13 08:14:50;;;;;;;7.07;1.23;;;;;;;24.93;33.86;102014.81;4946601;28;20401;-58
2022/05/13 08:17:15;;;;;;;7.60;1.55;;;;;;;24.43;34.72;102016.13;4952924;28;20062;-59
2022/05/13 08:19:41;;;;;;;9.00;1.65;;;;;;;24.85;34.92;102020.31;4950261;28;20051;-58
2022/05/13 08:22:06;;;;;;;5.78;1.60;;;;;;;24.90;33.93;102018.44;4955426;28;20622;-58
2022/05/13 08:24:31;;;;;;;6.43;1.85;;;;;;;24.59;35.00;102022.81;4957236;28;20116;-58
2022/05/13 08:26:57;;;;;;;7.18;1.60;;;;;;;24.05;35.02;102017.06;4946896;28;21127;-59
2022/05/13 08:29:22;;;;;;;7.10;1.70;;;;;;;23.91;36.05;102035.19;4953164;28;20046;-58
2022/05/13 08:31:50;;;;;;;8.55;1.75;;;;;;;23.19;38.82;102038.47;4945982;28;20042;-58
2022/05/13 08:34:16;;;;;;;11.68;1.98;;;;;;;22.93;38.63;102028.38;4954718;28;20042;-59
2022/05/13 08:36:42;;;;;;;7.32;2.28;;;;;;;22.66;40.15;102035.94;4952457;28;20474;-59
2022/05/13 08:39:10;;;;;;;6.25;1.80;;;;;;;22.20;40.71;102037.63;4952839;28;20137;-58
2022/05/13 08:42:04;;;;;;;7.70;2.00;;;;;;;22.01;40.05;102030.84;4957134;28;20319;-58
2022/05/13 08:44:30;;;;;;;7.47;1.67;;;;;;;22.19;41.25;102038.53;4961744;28;20136;-60
2022/05/13 08:47:07;;;;;;;7.35;1.95;;;;;;;21.91;41.31;102048.66;4921746;28;20045;-59
2022/05/13 08:49:58;;;;;;;7.72;1.90;;;;;;;21.59;42.03;102053.56;4949425;28;20050;-57
2022/05/13 08:55:56;;;;;;;7.50;1.92;;;;;;;21.40;41.34;102053.81;4948042;28;20089;-60
2022/05/13 08:58:35;;;;;;;8.40;2.00;;;;;;;21.07;43.77;102064.75;4955248;28;20454;-58
2022/05/13 09:01:06;;;;;;;10.10;2.08;;;;;;;21.10;43.03;102064.75;4938103;28;20077;-59
2022/05/13 09:04:03;;;;;;;6.32;1.63;;;;;;;21.22;43.80;102071.72;4956249;28;20053;-58
2022/05/13 09:06:48;;;;;;;10.27;2.00;;;;;;;21.32;43.60;102079.53;4936605;28;20061;-57
2022/05/13 09:09:14;;;;;;;7.00;2.03;;;;;;;21.73;42.61;102072.81;4951694;28;20074;-58
2022/05/13 09:11:55;;;;;;;8.90;2.00;;;;;;;22.10;41.53;102070.53;4943278;28;20227;-58
2022/05/13 09:14:27;;;;;;;9.02;1.95;;;;;;;21.66;41.46;102077.31;4959100;28;20120;-56
2022/05/13 09:17:28;;;;;;;6.85;1.90;;;;;;;21.69;41.04;102076.41;4949852;28;20228;-55
2022/05/13 09:20:12;;;;;;;8.23;1.58;;;;;;;21.30;42.18;102088.41;4964363;28;20133;-57
2022/05/13 09:22:52;;;;;;;7.63;1.95;;;;;;;21.61;42.03;102084.47;4958716;28;20046;-56
2022/05/13 09:25:24;;;;;;;9.98;2.00;;;;;;;21.17;41.97;102092.94;4957416;28;20070;-59
2022/05/13 09:27:57;;;;;;;6.43;1.95;;;;;;;21.35;43.18;102079.47;4944035;28;20397;-58
2022/05/13 09:30:28;;;;;;;9.10;1.90;;;;;;;21.31;42.62;102095.47;4958539;28;20053;-57
2022/05/13 09:32:54;;;;;;;9.65;1.95;;;;;;;21.04;41.84;102093.97;4951392;28;20288;-58
2022/05/13 09:35:35;;;;;;;7.55;1.90;;;;;;;20.78;42.38;102088.94;4959028;28;20050;-59
2022/05/13 09:38:16;;;;;;;7.82;2.00;;;;;;;20.54;44.20;102090.03;4962295;28;20330;-59
2022/05/13 09:40:42;;;;;;;6.95;2.10;;;;;;;20.53;43.94;102092.69;4944017;28;20064;-62
2022/05/13 09:43:07;;;;;;;8.70;1.95;;;;;;;20.72;43.86;102088.97;4959114;28;20042;-58
2022/05/13 09:45:34;;;;;;;7.35;1.83;;;;;;;20.76;43.84;102089.81;4959149;28;21969;-58
2022/05/13 09:48:11;;;;;;;3.80;1.60;;;;;;;21.08;42.41;102089.50;4959650;28;20112;-59
2022/05/13 09:50:43;;;;;;;6.90;1.80;;;;;;;21.29;42.98;102089.28;4936433;28;20710;-54
2022/05/13 09:53:21;;;;;;;10.70;1.83;;;;;;;21.47;42.46;102093.53;4956108;28;20474;-58
2022/05/13 09:55:48;;;;;;;8.45;1.80;;;;;;;21.57;41.50;102089.84;4960617;28;20153;-59
2022/05/13 09:58:24;;;;;;;11.23;1.83;;;;;;;21.61;42.04;102089.78;4963198;28;20485;-59
2022/05/13 10:00:58;;;;;;;6.53;1.65;;;;;;;21.84;41.31;102081.50;4955544;28;20858;-58
2022/05/13 10:03:27;;;;;;;5.75;1.98;;;;;;;21.76;40.59;102091.38;4951890;28;20050;-58
2022/05/13 10:06:09;;;;;;;5.68;1.80;;;;;;;21.78;41.70;102093.09;4952041;28;20573;-58
2022/05/13 10:08:38;;;;;;;6.28;1.80;;;;;;;21.88;41.50;102091.19;4959477;28;20109;-57
2022/05/13 10:14:00;;;;;;;8.68;1.73;;;;;;;22.08;40.86;102097.09;4948683;28;20482;-59
2022/05/13 10:16:40;;;;;;;8.63;1.90;;;;;;;22.06;40.43;102087.44;4948888;28;20046;-59
2022/05/13 10:19:25;;;;;;;7.85;1.95;;;;;;;22.03;40.99;102085.69;4940647;28;20510;-59
2022/05/13 10:22:08;;;;;;;5.82;1.77;;;;;;;22.15;40.33;102080.19;4951939;28;20050;-58
2022/05/13 10:24:44;;;;;;;8.65;1.90;;;;;;;22.01;40.15;102084.84;4958761;28;20049;-57
2022/05/13 10:27:25;;;;;;;8.82;2.13;;;;;;;21.79;41.00;102088.66;4957863;28;20766;-60
2022/05/13 10:29:57;;;;;;;7.90;1.88;;;;;;;21.50;41.17;102082.84;4954795;28;20046;-60
2022/05/13 10:32:41;;;;;;;7.25;2.10;;;;;;;21.57;40.34;102093.38;4957596;28;20069;-60
2022/05/13 10:35:12;;;;;;;7.80;1.73;;;;;;;21.65;39.67;102098.59;4956526;28;20627;-60
2022/05/13 10:38:02;;;;;;;4.90;1.60;;;;;;;21.26;39.29;102095.53;4956236;28;20042;-60
2022/05/13 10:40:34;;;;;;;7.93;1.90;;;;;;;20.94;41.50;102085.22;4949272;28;20317;-60
2022/05/13 10:43:05;;;;;;;6.43;1.90;;;;;;;21.06;42.08;102094.81;4953269;28;20054;-59
2022/05/13 10:45:33;;;;;;;5.95;2.10;;;;;;;21.36;41.39;102083.91;4953596;28;20076;-60
2022/05/13 10:48:25;;;;;;;9.80;2.28;;;;;;;21.63;40.90;102095.97;4954518;28;20129;-59
2022/05/13 10:51:12;;;;;;;5.38;1.63;;;;;;;22.09;39.58;102095.34;4950305;28;20123;-60
2022/05/13 10:54:05;;;;;;;6.25;1.75;;;;;;;22.15;40.83;102087.28;4956949;28;20077;-59
2022/05/13 10:56:42;;;;;;;5.78;1.90;;;;;;;22.39;37.83;102084.22;4956314;28;20557;-59
2022/05/13 10:59:29;;;;;;;6.97;1.80;;;;;;;22.28;39.84;102080.88;4957347;28;20042;-59
2022/05/13 11:02:21;;;;;;;5.88;1.80;;;;;;;21.80;39.25;102077.13;4957083;28;20144;-60
2022/05/13 11:05:12;;;;;;;10.82;1.90;;;;;;;22.07;40.85;102070.59;4943529;28;20549;-60
2022/05/13 11:07:40;;;;;;;9.35;2.40;;;;;;;22.17;40.12;102073.09;4959584;28;20580;-58
2022/05/13 11:10:47;;;;;;;9.20;1.98;;;;;;;22.19;39.66;102073.06;4953830;28;20133;-58
2022/05/13 11:13:43;;;;;;;8.77;2.03;;;;;;;22.61;40.54;102072.34;4945586;28;20070;-60
2022/05/13 11:16:22;;;;;;;8.88;2.10;;;;;;;23.05;39.21;102068.03;4952083;28;20034;-59
2022/05/13 11:19:00;;;;;;;12.13;2.22;;;;;;;23.28;39.21;102083.53;4947980;28;20046;-59
2022/05/13 11:21:48;;;;;;;7.70;2.10;;;;;;;22.68;39.50;102078.44;4956059;28;20051;-59
2022/05/13 11:27:51;;;;;;;11.60;2.30;;;;;;;22.74;39.70;102089.00;4955243;28;20108;-58
2022/05/13 11:30:20;;;;;;;6.20;2.10;;;;;;;22.51;38.90;102097.31;4948244;28;20042;-59
2022/05/13 11:32:54;;;;;;;6.57;2.00;;;;;;;22.24;38.88;102096.00;4946600;28;20046;-58
2022/05/13 11:35:32;;;;;;;7.88;2.10;;;;;;;22.03;39.60;102106.94;4959977;28;20078;-60
2022/05/13 11:38:06;;;;;;;11.65;1.90;;;;;;;22.23;39.53;102098.66;4957323;28;20461;-59
2022/05/13 11:40:47;;;;;;;8.57;2.47;;;;;;;21.86;40.06;102100.94;4958936;28;20153;-60
2022/05/13 11:43:31;;;;;;;11.65;2.13;;;;;;;22.32;38.91;102101.19;4947556;28;20042;-60
2022/05/13 11:46:21;;;;;;;8.93;2.22;;;;;;;22.51;40.27;102102.63;4947338;28;20483;-59
2022/05/13 11:48:50;;;;;;;13.88;2.40;;;;;;;22.42;38.96;102096.59;4948559;28;20046;-59
2022/05/13 11:51:19;;;;;;;9.82;2.20;;;;;;;22.26;38.83;102093.31;4955124;28;20038;-60
2022/05/13 11:54:01;;;;;;;4.88;1.90;;;;;;;22.58;39.46;102100.75;4943801;28;20382;-58
2022/05/13 11:56:30;;;;;;;5.80;1.67;;;;;;;22.71;38.83;102102.31;4956565;28;20042;-59
2022/05/13 11:59:03;;;;;;;9.15;1.90;;;;;;;22.95;38.68;102103.69;4947597;28;20418;-60
2022/05/13 12:01:52;;;;;;;;;;;;;;;23.04;38.05;102101.75;4958581;28;20053;-58